createdAt,value
2023-03-10T00:00:55.629Z,5.15
2023-03-10T00:01:55.621Z,5.15
2023-03-10T00:02:55.637Z,5.09
2023-03-10T00:03:55.613Z,5.17
2023-03-10T00:04:55.669Z,5.21
2023-03-10T00:05:55.647Z,5.17
2023-03-10T00:06:55.609Z,5.17
2023-03-10T00:07:55.594Z,5.04
2023-03-10T00:08:55.650Z,5.02
2023-03-10T00:09:55.580Z,4.92
2023-03-10T00:10:55.576Z,4.92
2023-03-10T00:11:55.566Z,4.92
2023-03-10T00:12:55.572Z,5.06
2023-03-10T00:13:55.570Z,5.09
2023-03-10T00:14:55.552Z,5.17
2023-03-10T00:15:55.607Z,5.13
2023-03-10T00:16:55.542Z,5.10
2023-03-10T00:17:55.538Z,5.12
2023-03-10T00:18:55.542Z,5.17
2023-03-10T00:19:55.532Z,5.02
2023-03-10T00:20:55.524Z,5.17
2023-03-10T00:21:55.509Z,5.06
2023-03-10T00:22:55.508Z,4.97
2023-03-10T00:23:55.501Z,4.89
2023-03-10T00:24:55.516Z,4.91
2023-03-10T00:25:55.491Z,5.04
2023-03-10T00:26:55.483Z,4.92
2023-03-10T00:27:55.476Z,5.10
2023-03-10T00:28:55.474Z,4.99
2023-03-10T00:29:55.463Z,4.92
2023-03-10T00:30:55.506Z,4.97
2023-03-10T00:31:55.449Z,4.94
2023-03-10T00:32:55.450Z,4.92
2023-03-10T00:33:55.444Z,4.86
2023-03-10T00:34:55.439Z,4.84
2023-03-10T00:35:55.476Z,4.86
2023-03-10T00:36:55.428Z,4.97
2023-03-10T00:37:55.418Z,4.86
2023-03-10T00:38:55.416Z,4.84
2023-03-10T00:39:55.410Z,4.89
2023-03-10T00:40:55.428Z,4.91
2023-03-10T00:41:55.404Z,4.94
2023-03-10T00:42:55.410Z,4.86
2023-03-10T00:43:55.386Z,4.88
2023-03-10T00:44:55.384Z,4.84
2023-03-10T00:45:55.399Z,4.92
2023-03-10T00:46:55.369Z,4.85
2023-03-10T00:47:55.373Z,4.89
2023-03-10T00:48:55.363Z,4.89
2023-03-10T00:49:55.354Z,4.92
2023-03-10T00:50:55.364Z,4.77
2023-03-10T00:51:55.337Z,4.72
2023-03-10T00:52:55.339Z,4.91
2023-03-10T00:53:55.331Z,4.84
2023-03-10T00:54:55.329Z,4.89
2023-03-10T00:55:55.319Z,4.86
2023-03-10T00:56:55.328Z,4.89
2023-03-10T00:57:55.304Z,4.91
2023-03-10T00:58:55.305Z,4.94
2023-03-10T00:59:55.291Z,5.00
2023-03-10T01:00:55.291Z,4.99
2023-03-10T01:01:55.347Z,4.96
2023-03-10T01:02:55.290Z,4.89
2023-03-10T01:03:55.342Z,4.88
2023-03-10T01:04:55.265Z,4.97
2023-03-10T01:05:55.256Z,5.04
2023-03-10T01:06:55.248Z,5.00
2023-03-10T01:07:55.245Z,4.96
2023-03-10T01:08:55.242Z,4.94
2023-03-10T01:09:55.247Z,4.96
2023-03-10T01:10:55.234Z,4.94
2023-03-10T01:11:55.222Z,4.96
2023-03-10T01:12:55.241Z,4.99
2023-03-10T01:13:55.212Z,5.00
2023-03-10T01:14:55.214Z,4.88
2023-03-10T01:15:55.280Z,4.85
2023-03-10T01:16:55.196Z,4.89
2023-03-10T01:17:55.201Z,5.02
2023-03-10T01:18:55.193Z,5.03
2023-03-10T01:19:55.172Z,4.94
2023-03-10T01:20:55.219Z,4.99
2023-03-10T01:21:55.162Z,5.03
2023-03-10T01:22:55.158Z,4.92
2023-03-10T01:23:55.150Z,5.04
2023-03-10T01:24:55.145Z,5.03
2023-03-10T01:25:55.136Z,5.06
2023-03-10T01:26:55.129Z,5.04
2023-03-10T01:27:55.120Z,4.99
2023-03-10T01:28:55.276Z,5.06
2023-03-10T01:29:55.112Z,4.89
2023-03-10T01:30:55.136Z,4.91
2023-03-10T01:31:55.101Z,4.94
2023-03-10T01:32:55.185Z,5.03
2023-03-10T01:33:55.090Z,4.94
2023-03-10T01:34:55.088Z,5.02
2023-03-10T01:35:55.180Z,4.94
2023-03-10T01:36:55.076Z,4.84
2023-03-10T01:37:55.065Z,4.89
2023-03-10T01:38:55.054Z,4.85
2023-03-10T01:39:55.050Z,4.73
2023-03-10T01:40:55.049Z,4.86
2023-03-10T01:41:55.060Z,4.92
2023-03-10T01:42:55.033Z,4.86
2023-03-10T01:43:55.026Z,4.96
2023-03-10T01:44:55.042Z,4.92
2023-03-10T01:45:55.025Z,4.92
2023-03-10T01:46:55.092Z,4.94
2023-03-10T01:47:54.997Z,4.91
2023-03-10T01:48:54.996Z,4.84
2023-03-10T01:49:54.988Z,4.99
2023-03-10T01:50:54.980Z,4.92
2023-03-10T01:51:54.978Z,4.91
2023-03-10T01:52:54.966Z,4.82
2023-03-10T01:53:54.966Z,4.84
2023-03-10T01:54:54.958Z,4.96
2023-03-10T01:55:54.952Z,4.89
2023-03-10T01:56:54.944Z,4.86
2023-03-10T01:57:54.939Z,4.88
2023-03-10T01:58:54.960Z,4.91
2023-03-10T01:59:54.930Z,4.92
2023-03-10T02:00:55.017Z,4.97
2023-03-10T02:01:54.970Z,4.89
2023-03-10T02:02:54.905Z,5.04
2023-03-10T02:03:54.908Z,4.97
2023-03-10T02:04:54.895Z,5.03
2023-03-10T02:05:54.894Z,4.99
2023-03-10T02:06:54.880Z,5.07
2023-03-10T02:07:54.879Z,5.03
2023-03-10T02:08:54.866Z,5.04
2023-03-10T02:09:54.864Z,4.94
2023-03-10T02:10:54.861Z,5.00
2023-03-10T02:11:54.855Z,5.12
2023-03-10T02:12:54.848Z,5.07
2023-03-10T02:13:54.851Z,5.04
2023-03-10T02:14:54.861Z,5.15
2023-03-10T02:15:54.884Z,5.02
2023-03-10T02:16:54.845Z,5.15
2023-03-10T02:17:54.951Z,5.25
2023-03-10T02:18:54.812Z,5.30
2023-03-10T02:19:54.807Z,5.31
2023-03-10T02:20:54.806Z,5.39
2023-03-10T02:21:54.804Z,5.25
2023-03-10T02:22:54.792Z,5.24
2023-03-10T02:24:01.379Z,5.24
2023-03-10T02:24:54.775Z,5.12
2023-03-10T02:25:54.783Z,5.09
2023-03-10T02:26:54.803Z,5.09
2023-03-10T02:27:54.777Z,5.02
2023-03-10T02:28:54.757Z,5.03
2023-03-10T02:29:59.272Z,5.06
2023-03-10T02:30:54.744Z,5.02
2023-03-10T02:31:54.886Z,5.03
2023-03-10T02:32:54.839Z,5.10
2023-03-10T02:33:54.729Z,5.10
2023-03-10T02:34:54.722Z,5.03
2023-03-10T02:35:54.801Z,5.18
2023-03-10T02:36:54.713Z,5.17
2023-03-10T02:37:54.717Z,5.31
2023-03-10T02:38:54.697Z,5.25
2023-03-10T02:39:54.709Z,5.28
2023-03-10T02:40:54.685Z,5.28
2023-03-10T02:41:54.679Z,5.15
2023-03-10T02:42:54.675Z,5.10
2023-03-10T02:43:54.688Z,5.10
2023-03-10T02:44:54.658Z,5.00
2023-03-10T02:45:54.733Z,5.03
2023-03-10T02:46:54.641Z,5.09
2023-03-10T02:47:54.645Z,5.24
2023-03-10T02:48:54.661Z,5.28
2023-03-10T02:49:54.646Z,5.33
2023-03-10T02:50:54.616Z,5.43
2023-03-10T02:51:54.612Z,5.25
2023-03-10T02:52:54.606Z,5.25
2023-03-10T02:53:54.611Z,5.28
2023-03-10T02:54:54.591Z,5.15
2023-03-10T02:55:54.600Z,5.10
2023-03-10T02:56:54.585Z,4.91
2023-03-10T02:57:54.582Z,4.88
2023-03-10T02:58:54.566Z,4.94
2023-03-10T02:59:54.570Z,5.15
2023-03-10T03:00:54.614Z,5.02
2023-03-10T03:01:54.565Z,5.13
2023-03-10T03:02:54.542Z,5.18
2023-03-10T03:03:54.593Z,5.30
2023-03-10T03:04:54.557Z,5.42
2023-03-10T03:05:54.530Z,5.39
2023-03-10T03:06:54.521Z,5.39
2023-03-10T03:07:54.520Z,5.43
2023-03-10T03:08:54.508Z,5.36
2023-03-10T03:09:54.503Z,5.22
2023-03-10T03:10:54.502Z,5.15
2023-03-10T03:11:54.492Z,5.02
2023-03-10T03:12:54.484Z,4.94
2023-03-10T03:13:54.478Z,5.03
2023-03-10T03:14:54.469Z,4.97
2023-03-10T03:15:54.471Z,4.85
2023-03-10T03:16:54.534Z,4.92
2023-03-10T03:17:54.455Z,4.99
2023-03-10T03:18:54.445Z,5.04
2023-03-10T03:19:54.449Z,5.02
2023-03-10T03:20:54.451Z,5.00
2023-03-10T03:21:54.430Z,4.92
2023-03-10T03:22:54.440Z,4.92
2023-03-10T03:23:54.414Z,4.89
2023-03-10T03:24:54.408Z,4.96
2023-03-10T03:25:54.403Z,4.92
2023-03-10T03:26:54.398Z,5.03
2023-03-10T03:27:54.401Z,5.02
2023-03-10T03:28:54.396Z,5.04
2023-03-10T03:29:54.381Z,4.96
2023-03-10T03:30:54.376Z,5.02
2023-03-10T03:31:54.401Z,5.09
2023-03-10T03:32:54.430Z,5.04
2023-03-10T03:33:54.365Z,4.97
2023-03-10T03:34:54.344Z,5.04
2023-03-10T03:35:38.804Z,4.99
2023-03-10T03:36:38.811Z,4.94
2023-03-10T03:37:38.786Z,5.04
2023-03-10T03:38:38.793Z,5.04
2023-03-10T03:39:38.838Z,5.00
2023-03-10T03:40:38.765Z,4.94
2023-03-10T03:41:38.789Z,5.10
2023-03-10T03:42:38.751Z,4.91
2023-03-10T03:43:38.770Z,5.00
2023-03-10T03:44:38.742Z,5.04
2023-03-10T03:45:38.732Z,5.04
2023-03-10T03:46:38.747Z,5.04
2023-03-10T03:47:38.734Z,5.09
2023-03-10T03:48:38.732Z,5.10
2023-03-10T03:49:38.723Z,5.12
2023-03-10T03:50:38.724Z,5.15
2023-03-10T03:51:38.697Z,5.07
2023-03-10T03:52:38.722Z,5.12
2023-03-10T03:53:38.686Z,5.15
2023-03-10T03:54:38.691Z,5.12
2023-03-10T03:55:38.676Z,5.15
2023-03-10T03:56:38.674Z,5.13
2023-03-10T03:57:38.661Z,5.15
2023-03-10T03:58:38.655Z,5.24
2023-03-10T03:59:38.684Z,5.27
2023-03-10T04:00:38.657Z,5.25
2023-03-10T04:01:38.634Z,5.35
2023-03-10T04:02:38.652Z,5.40
2023-03-10T04:03:38.718Z,5.27
2023-03-10T04:04:38.622Z,5.25
2023-03-10T04:05:38.618Z,5.27
2023-03-10T04:06:38.609Z,5.18
2023-03-10T04:07:38.600Z,5.21
2023-03-10T04:08:38.628Z,5.12
2023-03-10T04:09:38.589Z,5.13
2023-03-10T04:10:38.584Z,5.17
2023-03-10T04:11:38.605Z,5.18
2023-03-10T04:12:38.573Z,5.21
2023-03-10T04:13:38.579Z,5.15
2023-03-10T04:14:38.568Z,5.25
2023-03-10T04:15:38.575Z,5.15
2023-03-10T04:16:38.561Z,5.20
2023-03-10T04:17:38.539Z,5.17
2023-03-10T04:18:38.533Z,5.18
2023-03-10T04:19:38.537Z,5.07
2023-03-10T04:20:38.524Z,5.12
2023-03-10T04:21:38.513Z,5.13
2023-03-10T04:22:38.566Z,5.17
2023-03-10T04:23:38.504Z,5.09
2023-03-10T04:24:38.531Z,5.04
2023-03-10T04:25:38.490Z,5.12
2023-03-10T04:26:38.489Z,5.07
2023-03-10T04:27:38.478Z,5.06
2023-03-10T04:28:38.482Z,5.02
2023-03-10T04:29:38.476Z,5.03
2023-03-10T04:30:38.463Z,4.99
2023-03-10T04:31:38.598Z,5.03
2023-03-10T04:32:38.552Z,5.15
2023-03-10T04:33:38.441Z,5.13
2023-03-10T04:34:38.438Z,5.25
2023-03-10T04:35:38.527Z,5.25
2023-03-10T04:36:38.437Z,5.31
2023-03-10T04:37:38.424Z,5.21
2023-03-10T04:38:38.412Z,5.20
2023-03-10T04:39:38.404Z,5.15
2023-03-10T04:40:38.485Z,5.21
2023-03-10T04:41:38.405Z,5.25
2023-03-10T04:42:38.397Z,5.33
2023-03-10T04:43:38.804Z,5.30
2023-03-10T04:44:38.383Z,5.38
2023-03-10T04:45:38.372Z,5.31
2023-03-10T04:46:38.484Z,5.30
2023-03-10T04:47:38.370Z,5.25
2023-03-10T04:48:38.355Z,5.31
2023-03-10T04:49:38.360Z,5.46
2023-03-10T04:50:38.341Z,5.42
2023-03-10T04:51:38.336Z,5.39
2023-03-10T04:52:38.332Z,5.28
2023-03-10T04:53:38.323Z,5.27
2023-03-10T04:54:38.328Z,5.24
2023-03-10T04:55:38.319Z,5.27
2023-03-10T04:56:38.329Z,5.40
2023-03-10T04:57:38.297Z,5.54
2023-03-10T04:58:38.291Z,5.45
2023-03-10T04:59:38.292Z,5.24
2023-03-10T05:00:38.462Z,5.31
2023-03-10T05:01:38.341Z,5.30
2023-03-10T05:02:38.278Z,5.36
2023-03-10T05:03:38.261Z,5.28
2023-03-10T05:04:38.311Z,5.39
2023-03-10T05:05:38.249Z,5.25
2023-03-10T05:06:38.246Z,5.31
2023-03-10T05:07:38.231Z,5.35
2023-03-10T05:08:38.229Z,5.39
2023-03-10T05:09:38.220Z,5.21
2023-03-10T05:10:38.223Z,5.21
2023-03-10T05:11:38.208Z,5.33
2023-03-10T05:12:38.232Z,5.22
2023-03-10T05:13:38.193Z,5.28
2023-03-10T05:14:38.210Z,5.31
2023-03-10T05:15:38.183Z,5.31
2023-03-10T05:16:38.177Z,5.38
2023-03-10T05:17:38.168Z,5.42
2023-03-10T05:18:38.172Z,5.39
2023-03-10T05:19:38.157Z,5.45
2023-03-10T05:20:38.154Z,5.48
2023-03-10T05:21:38.148Z,5.43
2023-03-10T05:22:38.147Z,5.53
2023-03-10T05:23:38.136Z,5.42
2023-03-10T05:24:38.132Z,5.42
2023-03-10T05:25:38.124Z,5.45
2023-03-10T05:26:38.121Z,5.38
2023-03-10T05:27:38.131Z,5.48
2023-03-10T05:28:38.130Z,5.64
2023-03-10T05:29:38.102Z,5.68
2023-03-10T05:30:38.096Z,5.81
2023-03-10T05:31:38.154Z,5.82
2023-03-10T05:32:38.246Z,5.86
2023-03-10T05:33:38.070Z,5.86
2023-03-10T05:34:38.070Z,5.94
2023-03-10T05:35:38.129Z,5.83
2023-03-10T05:36:38.111Z,5.94
2023-03-10T05:37:38.055Z,5.89
2023-03-10T05:38:38.052Z,5.93
2023-03-10T05:39:38.041Z,5.90
2023-03-10T05:40:38.036Z,5.82
2023-03-10T05:41:38.048Z,5.86
2023-03-10T05:42:38.056Z,5.83
2023-03-10T05:43:38.027Z,5.78
2023-03-10T05:44:38.042Z,5.78
2023-03-10T05:45:38.010Z,5.81
2023-03-10T05:46:38.198Z,5.83
2023-03-10T05:47:37.998Z,5.81
2023-03-10T05:48:38.001Z,5.72
2023-03-10T05:49:38.857Z,5.75
2023-03-10T05:50:37.984Z,5.72
2023-03-10T05:51:37.974Z,5.61
2023-03-10T05:52:37.963Z,5.64
2023-03-10T05:53:37.967Z,5.61
2023-03-10T05:54:37.964Z,5.68
2023-03-10T05:55:37.952Z,5.81
2023-03-10T05:56:37.958Z,5.81
2023-03-10T05:57:37.950Z,5.81
2023-03-10T05:58:37.933Z,5.81
2023-03-10T05:59:37.926Z,5.82
2023-03-10T06:00:38.069Z,5.83
2023-03-10T06:01:37.924Z,5.82
2023-03-10T06:02:37.909Z,5.86
2023-03-10T06:03:38.228Z,5.91
2023-03-10T06:04:37.912Z,5.82
2023-03-10T06:05:37.892Z,5.91
2023-03-10T06:06:37.890Z,5.90
2023-03-10T06:07:37.879Z,5.93
2023-03-10T06:08:37.880Z,5.91
2023-03-10T06:09:37.876Z,5.75
2023-03-10T06:10:37.866Z,5.79
2023-03-10T06:11:37.855Z,5.81
2023-03-10T06:12:37.853Z,5.76
2023-03-10T06:13:37.849Z,5.89
2023-03-10T06:14:37.845Z,5.75
2023-03-10T06:15:37.839Z,5.85
2023-03-10T06:16:37.905Z,5.94
2023-03-10T06:17:37.823Z,5.85
2023-03-10T06:18:37.823Z,5.82
2023-03-10T06:19:37.821Z,5.82
2023-03-10T06:20:37.810Z,5.72
2023-03-10T06:21:37.801Z,5.68
2023-03-10T06:22:37.803Z,5.67
2023-03-10T06:23:37.786Z,5.79
2023-03-10T06:24:37.784Z,5.76
2023-03-10T06:25:37.771Z,5.85
2023-03-10T06:26:37.772Z,5.76
2023-03-10T06:27:37.768Z,5.82
2023-03-10T06:28:37.781Z,5.89
2023-03-10T06:29:37.751Z,5.96
2023-03-10T06:30:37.755Z,5.93
2023-03-10T06:31:37.826Z,5.89
2023-03-10T06:32:37.812Z,5.75
2023-03-10T06:33:37.734Z,5.83
2023-03-10T06:34:37.727Z,5.97
2023-03-10T06:35:37.749Z,5.86
2023-03-10T06:36:37.724Z,5.96
2023-03-10T06:37:37.709Z,6.01
2023-03-10T06:38:37.713Z,6.00
2023-03-10T06:39:37.696Z,6.11
2023-03-10T06:40:37.705Z,6.15
2023-03-10T06:41:37.691Z,6.14
2023-03-10T06:42:37.684Z,6.11
2023-03-10T06:43:37.679Z,5.93
2023-03-10T06:44:37.686Z,5.94
2023-03-10T06:45:37.744Z,6.00
2023-03-10T06:46:37.666Z,5.91
2023-03-10T06:47:37.657Z,6.04
2023-03-10T06:48:37.677Z,6.11
2023-03-10T06:49:37.647Z,6.14
2023-03-10T06:50:37.647Z,6.04
2023-03-10T06:51:37.635Z,6.04
2023-03-10T06:52:37.631Z,6.15
2023-03-10T06:53:37.632Z,6.18
2023-03-10T06:54:37.623Z,6.25
2023-03-10T06:55:37.613Z,6.30
2023-03-10T06:56:37.608Z,6.25
2023-03-10T06:57:37.602Z,6.22
2023-03-10T06:58:37.601Z,6.17
2023-03-10T06:59:37.591Z,6.08
2023-03-10T07:00:37.587Z,6.12
2023-03-10T07:01:37.656Z,6.19
2023-03-10T07:02:37.579Z,6.25
2023-03-10T07:03:37.565Z,6.36
2023-03-10T07:04:37.673Z,6.37
2023-03-10T07:05:37.554Z,6.41
2023-03-10T07:06:37.550Z,6.51
2023-03-10T07:07:37.545Z,6.46
2023-03-10T07:08:37.544Z,6.31
2023-03-10T07:09:37.538Z,6.28
2023-03-10T07:10:37.532Z,6.21
2023-03-10T07:11:37.523Z,6.09
2023-03-10T07:12:37.521Z,6.21
2023-03-10T07:13:37.510Z,6.22
2023-03-10T07:14:37.503Z,6.27
2023-03-10T07:15:39.838Z,6.34
2023-03-10T07:16:37.576Z,6.37
2023-03-10T07:17:37.491Z,6.33
2023-03-10T07:18:37.481Z,6.22
2023-03-10T07:19:37.474Z,6.30
2023-03-10T07:20:37.507Z,6.37
2023-03-10T07:21:37.471Z,6.36
2023-03-10T07:22:37.467Z,6.40
2023-03-10T07:23:37.453Z,6.28
2023-03-10T07:24:37.446Z,6.34
2023-03-10T07:25:37.444Z,6.33
2023-03-10T07:26:37.437Z,6.37
2023-03-10T07:27:37.428Z,6.34
2023-03-10T07:28:37.439Z,6.37
2023-03-10T07:29:37.418Z,6.37
2023-03-10T07:30:37.453Z,6.43
2023-03-10T07:31:37.422Z,6.44
2023-03-10T07:32:37.498Z,6.36
2023-03-10T07:33:37.395Z,6.37
2023-03-10T07:34:37.395Z,6.44
2023-03-10T07:35:37.492Z,6.66
2023-03-10T07:36:37.410Z,6.64
2023-03-10T07:37:37.383Z,6.43
2023-03-10T07:38:37.382Z,6.54
2023-03-10T07:39:37.389Z,6.52
2023-03-10T07:40:37.360Z,6.43
2023-03-10T07:41:37.353Z,6.44
2023-03-10T07:42:37.353Z,6.58
2023-03-10T07:43:37.354Z,6.58
2023-03-10T07:44:37.349Z,6.67
2023-03-10T07:45:37.346Z,6.69
2023-03-10T07:46:37.425Z,6.59
2023-03-10T07:47:37.327Z,6.49
2023-03-10T07:48:37.319Z,6.52
2023-03-10T07:49:37.315Z,6.46
2023-03-10T07:50:37.305Z,6.46
2023-03-10T07:51:37.305Z,6.54
2023-03-10T07:52:37.322Z,6.55
2023-03-10T07:53:37.295Z,6.43
2023-03-10T07:54:37.285Z,6.64
2023-03-10T07:55:37.284Z,6.70
2023-03-10T07:56:37.292Z,6.73
2023-03-10T07:57:37.274Z,6.91
2023-03-10T07:58:37.273Z,6.99
2023-03-10T07:59:38.005Z,7.06
2023-03-10T08:00:37.267Z,6.88
2023-03-10T08:01:37.259Z,6.73
2023-03-10T08:02:37.243Z,6.73
2023-03-10T08:03:37.260Z,6.73
2023-03-10T08:04:37.433Z,6.64
2023-03-10T08:05:37.232Z,6.80
2023-03-10T08:06:37.221Z,6.92
2023-03-10T08:07:37.527Z,7.03
2023-03-10T08:08:37.373Z,6.97
2023-03-10T08:09:37.223Z,7.09
2023-03-10T08:10:37.206Z,7.13
2023-03-10T08:11:37.207Z,7.15
2023-03-10T08:12:37.213Z,7.12
2023-03-10T08:13:37.804Z,7.09
2023-03-10T08:14:37.728Z,7.20
2023-03-10T08:15:37.237Z,7.40
2023-03-10T08:16:37.176Z,7.39
2023-03-10T08:17:37.176Z,7.40
2023-03-10T08:18:37.163Z,7.43
2023-03-10T08:19:37.854Z,7.34
2023-03-10T08:20:37.150Z,7.35
2023-03-10T08:21:37.656Z,7.43
2023-03-10T08:22:37.775Z,7.49
2023-03-10T08:23:37.142Z,7.49
2023-03-10T08:24:37.229Z,7.53
2023-03-10T08:25:37.129Z,7.71
2023-03-10T08:26:37.717Z,7.63
2023-03-10T08:27:37.115Z,7.77
2023-03-10T08:28:37.605Z,7.83
2023-03-10T08:29:37.759Z,7.74
2023-03-10T08:30:39.682Z,7.89
2023-03-10T08:31:37.536Z,7.87
2023-03-10T08:32:37.115Z,7.95
2023-03-10T08:33:37.091Z,7.95
2023-03-10T08:34:37.082Z,7.97
2023-03-10T08:35:37.146Z,7.82
2023-03-10T08:36:37.421Z,7.87
2023-03-10T08:37:37.708Z,7.93
2023-03-10T08:38:37.067Z,8.02
2023-03-10T08:39:37.647Z,7.98
2023-03-10T08:40:37.194Z,8.08
2023-03-10T08:41:37.518Z,8.08
2023-03-10T08:42:37.070Z,7.97
2023-03-10T08:43:37.038Z,8.07
2023-03-10T08:44:37.034Z,8.08
2023-03-10T08:45:37.035Z,8.08
2023-03-10T08:46:37.054Z,8.16
2023-03-10T08:47:37.053Z,8.22
2023-03-10T08:48:37.040Z,8.25
2023-03-10T08:49:37.019Z,8.33
2023-03-10T08:50:37.007Z,8.43
2023-03-10T08:51:37.005Z,8.47
2023-03-10T08:52:37.001Z,8.63
2023-03-10T08:53:36.995Z,8.76
2023-03-10T08:54:36.990Z,8.74
2023-03-10T08:55:36.993Z,8.70
2023-03-10T08:56:37.006Z,8.48
2023-03-10T08:57:36.982Z,8.65
2023-03-10T08:58:36.978Z,8.83
2023-03-10T08:59:36.982Z,9.10
2023-03-10T09:00:36.988Z,9.20
2023-03-10T09:01:37.021Z,9.17
2023-03-10T09:02:36.952Z,9.04
2023-03-10T09:03:37.070Z,8.99
2023-03-10T09:04:36.962Z,8.87
2023-03-10T09:05:36.957Z,8.96
2023-03-10T09:06:36.950Z,9.10
2023-03-10T09:07:36.956Z,9.18
2023-03-10T09:08:36.933Z,9.35
2023-03-10T09:09:36.936Z,9.39
2023-03-10T09:10:36.928Z,9.42
2023-03-10T09:11:38.912Z,9.38
2023-03-10T09:12:39.156Z,9.56
2023-03-10T09:13:36.922Z,9.84
2023-03-10T09:14:36.903Z,10.04
2023-03-10T09:15:36.908Z,10.40
2023-03-10T09:16:36.956Z,10.63
2023-03-10T09:17:39.452Z,10.96
2023-03-10T09:18:36.899Z,11.69
2023-03-10T09:19:36.890Z,12.10
2023-03-10T09:20:36.880Z,12.13
2023-03-10T09:21:36.883Z,12.78
2023-03-10T11:00:34.178Z,13.03
2023-03-10T11:01:34.184Z,13.03
2023-03-10T11:02:34.200Z,13.15
2023-03-10T11:03:34.145Z,13.07
2023-03-10T11:04:34.147Z,13.10
2023-03-10T11:05:34.149Z,13.22
2023-03-10T11:06:34.132Z,13.19
2023-03-10T11:07:34.132Z,13.39
2023-03-10T11:08:34.128Z,13.49
2023-03-10T11:09:34.131Z,13.49
2023-03-10T11:10:34.120Z,13.45
2023-03-10T11:11:34.122Z,13.46
2023-03-10T11:12:34.115Z,13.57
2023-03-10T11:13:34.113Z,13.57
2023-03-10T11:14:34.105Z,13.57
2023-03-10T11:15:34.180Z,13.51
2023-03-10T11:16:34.121Z,13.62
2023-03-10T11:17:34.102Z,13.64
2023-03-10T11:18:34.110Z,13.77
2023-03-10T11:19:34.103Z,13.91
2023-03-10T11:20:34.093Z,14.06
2023-03-10T11:21:34.090Z,14.04
2023-03-10T11:22:34.097Z,13.89
2023-03-10T11:23:34.096Z,13.89
2023-03-10T11:24:34.089Z,14.04
2023-03-10T11:25:34.085Z,13.92
2023-03-10T11:26:34.080Z,13.81
2023-03-10T11:27:34.087Z,13.85
2023-03-10T11:28:34.078Z,13.75
2023-03-10T11:29:34.119Z,13.87
2023-03-10T11:30:34.074Z,13.75
2023-03-10T11:31:34.152Z,13.78
2023-03-10T11:32:34.147Z,13.70
2023-03-10T11:33:34.090Z,13.64
2023-03-10T11:34:34.069Z,13.60
2023-03-10T11:35:34.083Z,13.52
2023-03-10T11:36:38.452Z,13.33
2023-03-10T11:37:34.072Z,13.38
2023-03-10T11:38:34.100Z,13.32
2023-03-10T11:39:34.056Z,13.39
2023-03-10T11:40:34.056Z,13.38
2023-03-10T11:41:34.053Z,13.33
2023-03-10T11:42:34.050Z,13.38
2023-03-10T11:43:34.050Z,13.44
2023-03-10T11:44:34.042Z,13.45
2023-03-10T11:45:34.044Z,13.36
2023-03-10T11:46:34.069Z,13.42
2023-03-10T11:47:34.040Z,13.49
2023-03-10T11:48:34.063Z,13.60
2023-03-10T11:49:34.038Z,13.48
2023-03-10T11:50:34.036Z,13.49
2023-03-10T11:51:34.040Z,13.55
2023-03-10T11:52:34.031Z,13.54
2023-03-10T11:53:34.038Z,13.71
2023-03-10T11:54:34.025Z,13.78
2023-03-10T11:55:34.035Z,13.66
2023-03-10T11:56:34.023Z,13.57
2023-03-10T11:57:34.026Z,13.52
2023-03-10T11:58:34.016Z,13.48
2023-03-10T11:59:34.017Z,13.48
2023-03-10T12:00:34.020Z,13.42
2023-03-10T12:01:34.027Z,13.33
2023-03-10T12:02:34.010Z,13.46
2023-03-10T12:03:34.053Z,13.42
2023-03-10T12:04:34.036Z,13.30
2023-03-10T12:05:34.216Z,13.44
2023-03-10T12:06:34.003Z,13.32
2023-03-10T12:07:34.008Z,13.26
2023-03-10T12:08:34.010Z,13.10
2023-03-10T12:09:34.005Z,13.30
2023-03-10T12:10:33.999Z,13.23
2023-03-10T12:11:33.998Z,13.11
2023-03-10T12:12:33.995Z,13.29
2023-03-10T12:13:33.996Z,13.48
2023-03-10T12:14:33.993Z,13.48
2023-03-10T12:15:33.993Z,13.45
2023-03-10T12:16:34.076Z,13.60
2023-03-10T12:17:33.990Z,13.54
2023-03-10T12:18:33.986Z,13.59
2023-03-10T12:19:33.984Z,13.77
2023-03-10T12:20:34.006Z,13.73
2023-03-10T12:21:33.986Z,13.67
2023-03-10T12:22:33.976Z,13.63
2023-03-10T12:23:33.980Z,13.66
2023-03-10T12:24:33.987Z,13.71
2023-03-10T12:25:33.978Z,13.71
2023-03-10T12:26:33.979Z,13.66
2023-03-10T12:27:33.983Z,13.63
2023-03-10T12:28:33.969Z,13.64
2023-03-10T12:29:33.972Z,13.57
2023-03-10T12:30:33.965Z,13.55
2023-03-10T12:31:34.032Z,13.59
2023-03-10T12:32:34.081Z,13.69
2023-03-10T12:33:33.961Z,13.89
2023-03-10T12:34:33.977Z,13.95
2023-03-10T12:35:33.960Z,14.00
2023-03-10T12:36:33.978Z,14.02
2023-03-10T12:37:33.956Z,14.10
2023-03-10T12:38:33.988Z,14.06
2023-03-10T12:39:33.953Z,14.02
2023-03-10T12:40:33.951Z,14.09
2023-03-10T12:41:33.952Z,14.07
2023-03-10T12:42:33.951Z,14.14
2023-03-10T12:43:33.948Z,14.20
2023-03-10T12:44:33.941Z,14.25
2023-03-10T12:45:33.944Z,14.37
2023-03-10T12:46:33.985Z,14.45
2023-03-10T12:47:33.952Z,14.47
2023-03-10T12:48:33.939Z,14.55
2023-03-10T12:49:33.945Z,14.64
2023-03-10T12:50:33.938Z,14.64
2023-03-10T12:51:33.936Z,14.58
2023-03-10T12:52:33.954Z,14.43
2023-03-10T12:53:33.943Z,14.29
2023-03-10T12:54:33.932Z,14.20
2023-03-10T12:55:33.956Z,14.17
2023-03-10T12:56:33.950Z,14.12
2023-03-10T12:57:33.930Z,13.95
2023-03-10T12:58:33.926Z,14.06
2023-03-10T12:59:33.928Z,13.99
2023-03-10T13:00:33.973Z,13.99
2023-03-10T13:01:35.084Z,14.02
2023-03-10T13:02:34.077Z,13.96
2023-03-10T13:03:33.963Z,13.89
2023-03-10T13:04:33.920Z,13.85
2023-03-10T13:05:33.938Z,13.95
2023-03-10T13:06:33.915Z,14.10
2023-03-10T13:07:33.933Z,14.15
2023-03-10T13:08:33.942Z,14.12
2023-03-10T13:09:33.921Z,14.14
2023-03-10T13:10:33.933Z,14.17
2023-03-10T13:11:33.923Z,14.14
2023-03-10T13:12:33.911Z,14.15
2023-03-10T13:13:33.921Z,14.18
2023-03-10T13:14:33.910Z,14.21
2023-03-10T13:15:33.911Z,14.22
2023-03-10T13:16:33.997Z,14.24
2023-03-10T13:17:33.913Z,14.21
2023-03-10T13:18:33.902Z,14.25
2023-03-10T13:19:33.912Z,14.29
2023-03-10T13:20:33.905Z,14.36
2023-03-10T13:21:33.909Z,14.43
2023-03-10T13:22:33.901Z,14.40
2023-03-10T13:23:33.905Z,14.51
2023-03-10T13:24:33.923Z,14.42
2023-03-10T13:25:33.923Z,14.43
2023-03-10T13:26:33.896Z,14.24
2023-03-10T13:27:33.910Z,14.29
2023-03-10T13:28:33.900Z,14.27
2023-03-10T13:29:33.897Z,14.28
2023-03-10T13:30:33.894Z,14.24
2023-03-10T13:31:34.003Z,14.20
2023-03-10T13:32:33.951Z,14.22
2023-03-10T13:33:42.984Z,14.25
2023-03-10T13:34:33.900Z,14.33
2023-03-10T13:35:33.954Z,14.36
2023-03-10T13:36:33.887Z,14.43
2023-03-10T13:37:33.883Z,14.45
2023-03-10T13:38:33.883Z,14.25
2023-03-10T13:39:33.891Z,14.21
2023-03-10T13:40:33.903Z,14.12
2023-03-10T13:41:33.893Z,14.00
2023-03-10T13:42:43.372Z,14.02
2023-03-10T13:43:33.881Z,14.00
2023-03-10T13:44:33.885Z,13.99
2023-03-10T13:45:34.108Z,14.17
2023-03-10T13:46:33.895Z,14.15
2023-03-10T13:47:33.876Z,14.17
2023-03-10T13:48:33.873Z,14.28
2023-03-10T13:49:33.879Z,14.37
2023-03-10T13:50:33.884Z,14.40
2023-03-10T13:51:33.872Z,14.51
2023-03-10T13:52:33.872Z,14.51
2023-03-10T13:53:33.874Z,14.69
2023-03-10T13:54:33.866Z,14.64
2023-03-10T13:55:33.867Z,14.54
2023-03-10T13:56:33.887Z,14.42
2023-03-10T13:57:33.866Z,14.33
2023-03-10T13:58:33.860Z,14.43
2023-03-10T13:59:33.866Z,14.42
2023-03-10T14:00:33.860Z,14.37
2023-03-10T14:01:33.955Z,14.25
2023-03-10T14:02:33.856Z,14.33
2023-03-10T14:03:33.914Z,14.20
2023-03-10T14:04:33.856Z,14.15
2023-03-10T14:05:33.857Z,14.15
2023-03-10T14:06:33.848Z,14.03
2023-03-10T14:07:33.860Z,13.78
2023-03-10T14:08:33.849Z,13.73
2023-03-10T14:09:33.864Z,13.78
2023-03-10T14:10:33.848Z,13.73
2023-03-10T14:11:33.873Z,13.63
2023-03-10T14:12:33.873Z,13.77
2023-03-10T14:13:33.845Z,13.60
2023-03-10T14:14:33.845Z,13.59
2023-03-10T14:15:33.840Z,13.63
2023-03-10T14:16:33.900Z,13.64
2023-03-10T14:17:33.870Z,13.57
2023-03-10T14:18:33.839Z,13.51
2023-03-10T14:19:33.840Z,13.38
2023-03-10T14:20:33.836Z,13.14
2023-03-10T14:21:33.834Z,13.28
2023-03-10T14:22:33.845Z,13.20
2023-03-10T14:23:33.841Z,13.22
2023-03-10T14:24:33.832Z,13.23
2023-03-10T14:25:33.833Z,13.25
2023-03-10T14:26:33.829Z,13.20
2023-03-10T14:27:33.832Z,13.25
2023-03-10T14:28:33.841Z,13.20
2023-03-10T14:29:33.837Z,13.19
2023-03-10T14:30:33.929Z,13.12
2023-03-10T14:31:33.815Z,13.01
2023-03-10T14:32:33.891Z,12.86
2023-03-10T14:33:33.822Z,12.75
2023-03-10T14:34:33.814Z,12.87
2023-03-10T14:35:33.819Z,12.83
2023-03-10T14:36:33.810Z,12.77
2023-03-10T14:37:33.829Z,12.83
2023-03-10T14:38:33.809Z,12.82
2023-03-10T14:39:33.811Z,12.90
2023-03-10T14:40:33.817Z,12.79
2023-03-10T14:41:33.810Z,12.90
2023-03-10T14:42:33.810Z,12.92
2023-03-10T14:43:33.811Z,12.96
2023-03-10T14:44:33.826Z,13.00
2023-03-10T14:45:34.046Z,13.05
2023-03-10T14:46:33.997Z,12.96
2023-03-10T14:47:34.200Z,13.00
2023-03-10T14:48:33.799Z,13.11